Time;durP1;ratioP1;P1;durP2;ratioP2;P2;SDS_P1;SDS_P2;PMS_P1;PMS_P2;Temp;Humidity;BMP_temperature;BMP_pressure;BME280_temperature;BME280_humidity;BME280_pressure;Samples;Min_cycle;Max_cycle;Signal;HPM_P1;HPM_P2
2022/09/24 00:01:19;;;;;;;45.80;36.50;;;13.50;99.90;;;;;;5090598;28;20044;-74
2022/09/24 00:03:50;;;;;;;48.22;37.35;;;13.60;99.90;;;;;;5097377;28;20060;-74
2022/09/24 00:06:20;;;;;;;45.10;35.95;;;13.50;99.90;;;;;;5083743;28;20048;-74
2022/09/24 00:08:48;;;;;;;50.58;37.55;;;13.50;99.90;;;;;;5082808;28;20492;-74
2022/09/24 00:11:15;;;;;;;45.47;39.13;;;13.50;99.90;;;;;;5108445;28;20048;-74
2022/09/24 00:13:41;;;;;;;48.05;38.50;;;13.60;99.90;;;;;;5089808;28;20104;-74
2022/09/24 00:16:10;;;;;;;52.75;41.33;;;13.50;99.90;;;;;;5089499;28;20044;-74
2022/09/24 00:18:37;;;;;;;49.30;39.90;;;13.50;99.90;;;;;;5089005;28;20048;-74
2022/09/24 00:21:14;;;;;;;53.33;39.30;;;13.60;99.90;;;;;;5088977;28;20100;-74
2022/09/24 00:23:40;;;;;;;51.25;39.08;;;13.50;99.90;;;;;;5110539;28;20044;-74
2022/09/24 00:28:53;;;;;;;54.00;42.05;;;13.50;99.90;;;;;;5108245;28;20051;-74
2022/09/24 00:31:18;;;;;;;50.42;39.30;;;13.50;99.90;;;;;;5107030;28;20068;-74
2022/09/24 00:33:44;;;;;;;53.65;41.58;;;13.50;99.90;;;;;;5088780;28;20052;-74
2022/09/24 00:36:10;;;;;;;54.50;41.55;;;13.50;99.90;;;;;;5089839;28;20047;-74
2022/09/24 00:38:35;;;;;;;49.38;39.55;;;13.50;99.90;;;;;;5108081;28;20094;-74
2022/09/24 00:41:02;;;;;;;55.47;43.63;;;13.50;99.90;;;;;;5094373;28;20032;-74
2022/09/24 00:43:33;;;;;;;56.65;42.67;;;13.50;99.90;;;;;;5088918;28;20044;-74
2022/09/24 00:46:21;;;;;;;53.67;43.60;;;13.50;99.90;;;;;;5088159;28;20111;-74
2022/09/24 00:48:48;;;;;;;53.42;42.60;;;13.50;99.90;;;;;;5088555;28;20040;-74
2022/09/24 00:51:19;;;;;;;55.65;42.50;;;13.50;99.90;;;;;;5088511;28;20065;-74
2022/09/24 00:53:46;;;;;;;57.15;43.42;;;13.50;99.90;;;;;;5106603;28;20083;-74
2022/09/24 00:56:14;;;;;;;56.00;43.70;;;13.50;99.90;;;;;;5088346;28;20098;-74
2022/09/24 00:58:44;;;;;;;54.03;41.92;;;13.50;99.90;;;;;;5106505;28;20130;-74
2022/09/24 01:01:10;;;;;;;52.22;43.33;;;13.40;99.90;;;;;;5106624;28;20040;-74
2022/09/24 01:03:39;;;;;;;55.70;43.03;;;13.50;99.90;;;;;;5088210;28;20108;-74
2022/09/24 01:06:07;;;;;;;63.03;46.75;;;13.50;99.90;;;;;;5101209;28;20041;-75
2022/09/24 01:08:33;;;;;;;58.95;44.92;;;13.50;99.90;;;;;;5104624;28;20105;-74
2022/09/24 01:11:17;;;;;;;56.00;43.92;;;13.50;99.90;;;;;;5087927;28;20062;-74
2022/09/24 01:14:07;;;;;;;55.10;43.90;;;13.50;99.90;;;;;;5087761;28;20056;-74
2022/09/24 01:16:45;;;;;;;59.33;46.60;;;13.40;99.90;;;;;;5106161;28;20048;-75
2022/09/24 01:19:11;;;;;;;60.67;45.55;;;13.50;99.90;;;;;;5097357;28;20056;-74
2022/09/24 01:21:39;;;;;;;63.63;48.42;;;13.40;99.90;;;;;;5089430;28;20055;-74
2022/09/24 01:24:14;;;;;;;64.72;49.72;;;13.40;99.90;;;;;;5087707;28;20079;-74
2022/09/24 01:26:46;;;;;;;61.05;46.25;;;13.40;99.90;;;;;;5087529;28;20104;-74
2022/09/24 01:29:42;;;;;;;65.63;47.28;;;13.50;99.90;;;;;;5088559;28;20066;-74
2022/09/24 01:32:23;;;;;;;58.95;45.83;;;13.50;99.90;;;;;;5087744;28;20055;-74
2022/09/24 01:35:15;;;;;;;58.03;46.05;;;13.50;99.90;;;;;;5087355;28;20075;-74
2022/09/24 01:37:48;;;;;;;61.42;45.92;;;13.50;99.90;;;;;;5077958;28;20461;-74
2022/09/24 01:40:16;;;;;;;65.70;48.35;;;13.50;99.90;;;;;;5087697;28;20048;-74
2022/09/24 01:42:43;;;;;;;67.82;49.42;;;13.50;99.90;;;;;;5071844;28;20399;-74
2022/09/24 01:45:10;;;;;;;68.25;48.95;;;13.50;99.90;;;;;;5088462;28;20123;-74
2022/09/24 01:47:39;;;;;;;60.28;45.90;;;13.50;99.90;;;;;;5088076;28;20044;-74
2022/09/24 01:50:10;;;;;;;61.92;46.67;;;13.40;99.90;;;;;;5087154;28;20056;-74
2022/09/24 01:52:50;;;;;;;62.42;45.13;;;13.40;99.90;;;;;;5105826;28;20048;-74
2022/09/24 01:55:23;;;;;;;65.88;49.58;;;13.40;99.90;;;;;;5105526;28;20036;-74
2022/09/24 01:57:58;;;;;;;67.18;48.20;;;13.50;99.90;;;;;;5086465;28;20063;-74
2022/09/24 02:00:24;;;;;;;68.72;47.58;;;13.50;99.90;;;;;;5087216;28;20504;-74
2022/09/24 02:03:04;;;;;;;68.93;49.15;;;13.50;99.90;;;;;;5110604;28;20086;-74
2022/09/24 02:05:57;;;;;;;61.25;45.80;;;13.40;99.90;;;;;;5074705;28;20048;-74
2022/09/24 02:08:29;;;;;;;66.97;47.70;;;13.40;99.90;;;;;;5105929;28;20083;-74
2022/09/24 02:11:23;;;;;;;63.45;47.85;;;13.40;99.90;;;;;;5106460;28;20063;-74
2022/09/24 02:14:07;;;;;;;70.80;51.58;;;13.40;99.90;;;;;;5084063;28;20051;-74
2022/09/24 02:16:37;;;;;;;65.38;45.33;;;13.40;99.90;;;;;;5086855;28;20048;-74
2022/09/24 02:19:08;;;;;;;66.78;46.78;;;13.40;99.90;;;;;;5087276;28;20059;-74
2022/09/24 02:21:36;;;;;;;69.22;50.40;;;13.30;99.90;;;;;;5086658;28;20052;-74
2022/09/24 02:24:09;;;;;;;64.15;47.30;;;13.30;99.90;;;;;;5070525;28;20039;-74
2022/09/24 02:26:35;;;;;;;68.43;48.92;;;13.30;99.90;;;;;;5085967;28;20086;-74
2022/09/24 02:29:01;;;;;;;62.22;46.35;;;13.40;99.90;;;;;;5086482;28;20047;-74
2022/09/24 02:31:32;;;;;;;66.70;48.55;;;13.40;99.90;;;;;;5105306;28;20044;-74
2022/09/24 02:34:21;;;;;;;71.15;49.95;;;13.40;99.90;;;;;;5086685;28;20047;-74
2022/09/24 02:37:07;;;;;;;64.85;46.78;;;13.40;99.90;;;;;;5075063;28;20051;-74
2022/09/24 02:39:33;;;;;;;63.20;46.97;;;13.40;99.90;;;;;;5087087;28;20044;-74
2022/09/24 02:41:59;;;;;;;68.03;48.15;;;13.40;99.90;;;;;;5086622;28;20044;-74
2022/09/24 02:44:25;;;;;;;64.55;45.28;;;13.40;99.90;;;;;;5087241;28;20101;-74
2022/09/24 02:46:51;;;;;;;70.60;48.55;;;13.30;99.90;;;;;;5087397;28;20087;-74
2022/09/24 02:49:17;;;;;;;64.18;46.63;;;13.30;99.90;;;;;;5070829;28;20043;-74
2022/09/24 02:51:43;;;;;;;67.18;48.35;;;13.40;99.90;;;;;;5086372;28;20052;-74
2022/09/24 02:54:10;;;;;;;67.95;48.67;;;13.40;99.90;;;;;;5086158;28;20488;-74
2022/09/24 02:56:35;;;;;;;63.45;45.95;;;13.30;99.90;;;;;;5085956;28;20055;-74
2022/09/24 02:59:01;;;;;;;65.30;44.95;;;13.40;99.90;;;;;;5086098;28;20044;-74
2022/09/24 03:01:31;;;;;;;63.13;46.38;;;13.40;99.90;;;;;;5069449;28;20040;-74
2022/09/24 03:03:57;;;;;;;67.38;46.75;;;13.30;99.90;;;;;;5071563;28;20156;-74
2022/09/24 03:06:26;;;;;;;64.68;46.15;;;13.40;99.90;;;;;;5085523;28;20056;-74
2022/09/24 03:08:52;;;;;;;60.25;44.20;;;13.30;99.90;;;;;;5086613;28;20040;-74
2022/09/24 03:11:20;;;;;;;63.80;46.47;;;13.30;99.90;;;;;;5087459;28;20044;-74
2022/09/24 03:13:47;;;;;;;66.03;47.15;;;13.40;99.90;;;;;;5069312;28;20107;-74
2022/09/24 03:16:13;;;;;;;66.05;47.42;;;13.30;99.90;;;;;;5085811;28;20046;-74
2022/09/24 03:18:38;;;;;;;71.43;48.75;;;13.30;99.90;;;;;;5085960;28;20123;-74
2022/09/24 03:21:07;;;;;;;63.40;45.55;;;13.30;99.90;;;;;;5085894;28;20052;-74
2022/09/24 03:23:33;;;;;;;61.83;44.58;;;13.20;99.90;;;;;;5085382;28;20051;-74
2022/09/24 03:25:59;;;;;;;70.85;50.05;;;13.30;99.90;;;;;;5085529;28;20048;-74
2022/09/24 03:28:26;;;;;;;71.68;47.78;;;13.20;99.90;;;;;;5086075;28;20059;-74
2022/09/24 03:31:00;;;;;;;74.90;48.13;;;13.20;99.90;;;;;;5085288;28;20131;-74
2022/09/24 03:33:30;;;;;;;64.95;43.72;;;13.10;99.90;;;;;;5087152;28;20044;-74
2022/09/24 03:36:01;;;;;;;70.93;47.90;;;13.20;99.90;;;;;;5069684;28;20048;-74
2022/09/24 03:38:28;;;;;;;73.00;48.35;;;13.20;99.90;;;;;;5085623;28;20105;-74
2022/09/24 03:40:54;;;;;;;70.68;46.97;;;13.10;99.90;;;;;;5086922;28;20105;-74
2022/09/24 03:43:20;;;;;;;77.93;47.78;;;13.00;99.90;;;;;;5104544;28;20106;-74
2022/09/24 03:45:46;;;;;;;68.47;46.20;;;13.10;99.90;;;;;;5085680;28;20044;-74
2022/09/24 03:48:12;;;;;;;82.20;51.00;;;13.10;99.90;;;;;;5085425;28;20044;-74
2022/09/24 03:50:38;;;;;;;75.50;49.15;;;13.00;99.90;;;;;;5085672;28;20048;-74
2022/09/24 03:53:04;;;;;;;74.00;48.13;;;13.00;99.90;;;;;;5085269;28;20072;-74
2022/09/24 03:55:29;;;;;;;75.13;49.00;;;13.00;99.90;;;;;;5104793;28;20043;-74
2022/09/24 03:57:55;;;;;;;74.25;48.97;;;13.00;99.90;;;;;;5103750;28;20036;-74
2022/09/24 04:00:22;;;;;;;76.68;49.25;;;13.00;99.90;;;;;;5085688;28;20104;-74
2022/09/24 04:02:48;;;;;;;76.18;49.42;;;12.90;99.90;;;;;;5115751;28;20059;-74
2022/09/24 04:05:15;;;;;;;72.80;46.75;;;13.00;99.90;;;;;;5086210;28;20726;-74
2022/09/24 04:07:42;;;;;;;75.10;49.30;;;12.90;99.90;;;;;;5084218;28;20072;-74
2022/09/24 04:10:08;;;;;;;68.05;45.55;;;13.00;99.90;;;;;;5083233;28;20405;-74
2022/09/24 04:12:34;;;;;;;75.50;50.17;;;13.00;99.90;;;;;;5083447;28;20098;-74
2022/09/24 04:15:01;;;;;;;70.30;48.28;;;12.90;99.90;;;;;;5065239;28;20044;-74
2022/09/24 04:17:32;;;;;;;72.93;50.30;;;13.00;99.90;;;;;;5083162;28;20563;-74
2022/09/24 04:19:58;;;;;;;77.07;47.95;;;13.00;99.90;;;;;;5066265;28;20047;-74
2022/09/24 04:22:25;;;;;;;75.68;49.45;;;13.00;99.90;;;;;;5087063;28;20052;-74
2022/09/24 04:24:51;;;;;;;68.22;47.70;;;13.00;99.90;;;;;;5086059;28;20052;-74
2022/09/24 04:27:17;;;;;;;74.22;47.83;;;13.00;99.90;;;;;;5086939;28;20507;-74
2022/09/24 04:29:43;;;;;;;73.25;49.65;;;13.00;99.90;;;;;;5086816;28;20051;-74
2022/09/24 04:32:08;;;;;;;73.63;47.53;;;13.10;99.90;;;;;;5068953;28;20075;-74
2022/09/24 04:34:34;;;;;;;73.63;49.35;;;13.10;99.90;;;;;;5069523;28;20052;-74
2022/09/24 04:37:00;;;;;;;73.00;48.53;;;13.00;99.90;;;;;;5087034;28;20051;-74
2022/09/24 04:39:26;;;;;;;66.80;46.05;;;13.10;99.90;;;;;;5068522;28;20080;-74
2022/09/24 04:41:53;;;;;;;69.18;46.92;;;13.10;99.90;;;;;;5052538;28;20203;-74
2022/09/24 04:44:19;;;;;;;74.15;48.58;;;13.10;99.90;;;;;;5086555;28;20071;-74
2022/09/24 04:46:44;;;;;;;73.28;48.53;;;13.20;99.90;;;;;;5069222;28;20056;-74
2022/09/24 04:49:10;;;;;;;78.72;50.40;;;13.10;99.90;;;;;;5087662;28;20063;-74
2022/09/24 04:51:36;;;;;;;66.38;45.85;;;13.20;99.90;;;;;;5069049;28;20515;-74
2022/09/24 04:54:02;;;;;;;74.88;49.67;;;13.10;99.90;;;;;;5068305;28;20535;-74
2022/09/24 04:56:28;;;;;;;66.50;45.47;;;13.10;99.90;;;;;;5068454;28;20055;-74
2022/09/24 04:58:54;;;;;;;66.88;47.75;;;13.10;99.90;;;;;;5067956;28;20052;-74
2022/09/24 05:01:20;;;;;;;72.82;47.97;;;13.10;99.90;;;;;;5052540;28;20098;-74
2022/09/24 05:03:46;;;;;;;67.25;46.15;;;13.20;99.90;;;;;;5087191;28;20044;-74
2022/09/24 05:06:12;;;;;;;71.78;48.45;;;13.20;99.90;;;;;;5064327;28;20040;-74
2022/09/24 05:08:39;;;;;;;69.88;46.78;;;13.10;99.90;;;;;;5086243;28;20433;-74
2022/09/24 05:11:04;;;;;;;71.25;49.58;;;13.20;99.90;;;;;;5088307;28;20048;-74
2022/09/24 05:13:30;;;;;;;71.90;46.90;;;13.20;99.90;;;;;;5087828;28;20701;-74
2022/09/24 05:15:56;;;;;;;70.80;47.35;;;13.20;99.90;;;;;;5106286;28;20051;-74
2022/09/24 05:18:21;;;;;;;73.93;49.88;;;13.20;99.90;;;;;;5087911;28;20052;-74
2022/09/24 05:20:48;;;;;;;75.13;48.75;;;13.20;99.90;;;;;;5088516;28;20048;-74
2022/09/24 05:23:13;;;;;;;77.18;50.50;;;13.20;99.90;;;;;;5087270;28;20048;-74
2022/09/24 05:28:25;;;;;;;82.90;52.97;;;13.10;99.90;;;;;;5066280;28;20496;-74
2022/09/24 05:30:56;;;;;;;80.50;49.90;;;13.10;99.90;;;;;;5054086;28;20059;-74
2022/09/24 05:33:21;;;;;;;80.32;52.08;;;13.20;99.90;;;;;;5088309;28;20389;-74
2022/09/24 05:35:53;;;;;;;80.35;52.10;;;13.20;99.90;;;;;;5055623;28;20078;-74
2022/09/24 05:38:19;;;;;;;79.20;49.65;;;13.10;99.90;;;;;;5070398;28;20108;-74
2022/09/24 05:40:47;;;;;;;81.25;51.33;;;13.10;99.90;;;;;;5087621;28;20040;-74
2022/09/24 05:43:13;;;;;;;83.38;51.85;;;13.10;99.90;;;;;;5088458;28;20055;-74
2022/09/24 05:45:39;;;;;;;82.05;51.65;;;13.00;99.90;;;;;;5087329;28;20044;-74
2022/09/24 05:48:04;;;;;;;81.20;50.13;;;13.10;99.90;;;;;;5087080;28;20048;-74
2022/09/24 05:50:31;;;;;;;83.65;51.83;;;13.10;99.90;;;;;;5087536;28;20043;-74
2022/09/24 05:52:57;;;;;;;75.93;49.03;;;13.10;99.90;;;;;;5087137;28;20063;-74
2022/09/24 05:55:23;;;;;;;84.97;53.58;;;13.10;99.90;;;;;;5087188;28;20052;-74
2022/09/24 05:57:49;;;;;;;86.60;51.35;;;13.10;99.90;;;;;;5105147;28;20044;-74
2022/09/24 06:00:15;;;;;;;77.45;50.30;;;13.00;99.90;;;;;;5074146;28;20551;-74
2022/09/24 06:02:40;;;;;;;86.05;52.67;;;13.10;99.90;;;;;;5097699;28;20051;-74
2022/09/24 06:05:06;;;;;;;84.00;53.35;;;13.10;99.90;;;;;;5087059;28;20059;-74
2022/09/24 06:07:32;;;;;;;87.82;54.45;;;13.10;99.90;;;;;;5083808;28;20532;-74
2022/09/24 06:09:59;;;;;;;84.05;52.70;;;13.10;99.90;;;;;;5086100;28;20048;-74
2022/09/24 06:12:25;;;;;;;84.85;51.85;;;13.10;99.90;;;;;;5088408;28;20128;-74
2022/09/24 06:14:52;;;;;;;82.50;51.47;;;13.10;99.90;;;;;;5088500;28;20052;-75
2022/09/24 06:17:19;;;;;;;76.72;49.38;;;13.20;99.90;;;;;;5071446;28;20040;-75
2022/09/24 06:19:46;;;;;;;84.72;52.35;;;13.20;99.90;;;;;;5105323;28;20044;-76
2022/09/24 06:22:12;;;;;;;78.35;50.28;;;13.20;99.90;;;;;;5087288;28;20058;-75
2022/09/24 06:24:38;;;;;;;80.82;51.97;;;13.10;99.90;;;;;;5089134;28;20044;-75
2022/09/24 06:27:04;;;;;;;81.93;51.58;;;13.20;99.90;;;;;;5095451;28;20074;-80
2022/09/24 06:29:30;;;;;;;83.43;52.97;;;13.10;99.90;;;;;;5069334;28;20036;-80
2022/09/24 06:31:56;;;;;;;92.03;52.42;;;13.10;99.90;;;;;;5070393;28;20044;-80
2022/09/24 06:34:22;;;;;;;84.55;50.17;;;13.20;99.90;;;;;;5069711;28;20212;-76
2022/09/24 06:36:47;;;;;;;81.80;51.15;;;13.20;99.90;;;;;;5069731;28;20055;-78
2022/09/24 06:39:13;;;;;;;79.18;49.45;;;13.10;99.90;;;;;;5085328;28;20100;-78
2022/09/24 06:41:39;;;;;;;81.50;50.75;;;13.10;99.90;;;;;;5070041;28;20048;-76
2022/09/24 06:44:04;;;;;;;83.70;51.40;;;13.20;99.90;;;;;;5085922;28;20056;-76
2022/09/24 06:46:30;;;;;;;81.70;50.17;;;13.20;99.90;;;;;;5085914;28;20047;-75
2022/09/24 06:48:56;;;;;;;76.97;49.65;;;13.20;99.90;;;;;;5085874;28;20108;-74
2022/09/24 06:51:22;;;;;;;75.97;46.47;;;13.20;99.90;;;;;;5086009;28;20051;-74
2022/09/24 06:53:51;;;;;;;60.35;41.40;;;13.20;99.90;;;;;;5104962;28;20048;-75
2022/09/24 06:56:17;;;;;;;63.38;41.50;;;13.10;99.90;;;;;;5070150;28;20040;-74
2022/09/24 06:58:42;;;;;;;67.57;43.35;;;13.20;99.90;;;;;;5086649;28;20054;-73
2022/09/24 07:01:08;;;;;;;71.15;45.10;;;13.20;99.90;;;;;;5105665;28;20035;-74
2022/09/24 07:03:34;;;;;;;61.25;42.08;;;13.30;99.90;;;;;;5110842;28;20048;-73
2022/09/24 07:06:02;;;;;;;65.85;43.08;;;13.20;99.90;;;;;;5086416;28;20048;-74
2022/09/24 07:08:28;;;;;;;67.05;43.78;;;13.30;99.90;;;;;;5104199;28;20451;-74
2022/09/24 07:10:54;;;;;;;60.25;41.58;;;13.30;99.90;;;;;;5086354;28;20138;-74
2022/09/24 07:13:20;;;;;;;60.17;41.95;;;13.30;99.90;;;;;;5086179;28;20044;-74
2022/09/24 07:15:48;;;;;;;60.53;40.70;;;13.30;99.90;;;;;;5086068;28;20112;-75
2022/09/24 07:18:13;;;;;;;65.88;42.15;;;13.40;99.90;;;;;;5069047;28;20496;-75
2022/09/24 07:20:39;;;;;;;64.72;41.72;;;13.30;99.90;;;;;;5085630;28;20070;-74
2022/09/24 07:23:07;;;;;;;63.65;41.00;;;13.40;99.90;;;;;;5085511;28;20048;-74
2022/09/24 07:25:34;;;;;;;54.05;35.90;;;13.40;99.90;;;;;;5113970;28;20103;-74
2022/09/24 07:28:18;;;;;;;58.72;37.35;;;13.40;99.90;;;;;;5097717;28;20039;-73
2022/09/24 07:30:44;;;;;;;59.08;39.28;;;13.50;99.90;;;;;;5028450;28;20356;-72
2022/09/24 07:33:09;;;;;;;51.88;36.40;;;13.50;99.90;;;;;;5058318;28;20083;-73
2022/09/24 07:35:38;;;;;;;49.22;34.58;;;13.50;99.90;;;;;;5059112;28;20780;-72
2022/09/24 07:38:13;;;;;;;50.92;35.63;;;13.50;99.90;;;;;;5069923;28;20150;-72
2022/09/24 07:40:39;;;;;;;50.92;34.40;;;13.50;99.90;;;;;;5077369;28;20075;-72
2022/09/24 07:43:06;;;;;;;53.03;36.25;;;13.60;99.90;;;;;;5082633;28;20044;-72
2022/09/24 07:45:32;;;;;;;48.10;34.55;;;13.70;99.90;;;;;;5082090;28;20044;-69
2022/09/24 07:47:59;;;;;;;49.10;34.22;;;13.60;99.90;;;;;;5071669;28;20445;-71
2022/09/24 07:50:26;;;;;;;47.90;33.67;;;13.70;99.90;;;;;;5081273;28;20052;-71
2022/09/24 07:52:52;;;;;;;46.28;33.75;;;13.60;99.90;;;;;;5071568;28;20140;-71
2022/09/24 07:55:18;;;;;;;45.80;31.90;;;13.70;99.90;;;;;;5083243;28;20071;-71
2022/09/24 07:57:48;;;;;;;42.75;30.50;;;13.80;99.90;;;;;;5075461;28;20048;-71
2022/09/24 08:00:16;;;;;;;48.05;30.50;;;13.80;99.90;;;;;;5085124;28;20047;-71
2022/09/24 08:02:43;;;;;;;42.30;28.85;;;13.80;99.90;;;;;;5052926;28;20126;-71
2022/09/24 08:05:09;;;;;;;38.90;28.02;;;13.80;99.90;;;;;;5098003;28;20070;-72
2022/09/24 08:07:35;;;;;;;41.97;28.38;;;13.80;99.90;;;;;;5071298;28;20095;-71
2022/09/24 08:10:01;;;;;;;42.70;29.20;;;13.90;99.90;;;;;;5081655;28;20086;-72
2022/09/24 08:12:27;;;;;;;42.83;28.35;;;14.00;99.90;;;;;;5074930;28;20075;-72
2022/09/24 08:14:53;;;;;;;43.60;30.40;;;14.00;99.90;;;;;;5085647;28;20055;-72
2022/09/24 08:17:19;;;;;;;29.10;19.10;;;14.00;99.90;;;;;;5088467;28;20078;-70
2022/09/24 08:19:45;;;;;;;19.88;12.00;;;13.90;99.90;;;;;;5077550;28;20048;-71
2022/09/24 08:22:13;;;;;;;22.50;14.77;;;14.00;99.90;;;;;;5074172;28;20401;-74
2022/09/24 08:24:39;;;;;;;24.50;11.80;;;14.10;99.90;;;;;;5102006;28;20058;-71
2022/09/24 08:27:06;;;;;;;12.65;4.72;;;14.20;99.90;;;;;;5072579;28;20052;-71
2022/09/24 08:29:32;;;;;;;15.10;4.78;;;14.10;99.90;;;;;;5072147;28;20561;-71
2022/09/24 08:31:57;;;;;;;14.57;4.35;;;14.20;99.90;;;;;;5072970;28;20079;-71
2022/09/24 08:34:23;;;;;;;11.55;3.25;;;14.10;99.90;;;;;;5081517;28;20135;-71
2022/09/24 08:36:49;;;;;;;14.95;3.58;;;14.20;99.90;;;;;;5090336;28;20435;-82
2022/09/24 08:39:15;;;;;;;11.38;3.03;;;14.30;99.90;;;;;;5065780;28;20040;-72
2022/09/24 08:42:00;;;;;;;13.82;3.78;;;14.30;99.90;;;;;;5088717;28;20134;-76
2022/09/24 08:47:49;;;;;;;14.25;4.07;;;14.30;99.90;;;;;;5071450;28;20127;-74
2022/09/24 08:50:22;;;;;;;11.05;3.53;;;14.30;99.90;;;;;;5081468;28;20056;-76
2022/09/24 08:52:47;;;;;;;12.57;3.00;;;14.30;99.90;;;;;;5071547;28;20638;-76
2022/09/24 08:55:23;;;;;;;10.60;2.80;;;14.30;99.90;;;;;;5098849;28;20047;-76
2022/09/24 08:58:11;;;;;;;9.98;2.90;;;14.40;99.90;;;;;;5089531;28;20046;-76
2022/09/24 09:00:46;;;;;;;12.98;3.25;;;14.50;99.90;;;;;;5099898;28;20048;-72
2022/09/24 09:03:29;;;;;;;9.75;3.05;;;14.50;99.90;;;;;;5091474;28;20059;-72
2022/09/24 09:06:32;;;;;;;11.82;3.22;;;14.60;99.90;;;;;;5080675;28;20408;-72
2022/09/24 09:09:09;;;;;;;11.85;2.83;;;14.70;99.90;;;;;;5071623;28;20090;-72
2022/09/24 09:11:38;;;;;;;17.58;2.88;;;14.90;99.90;;;;;;5070183;28;20052;-74
2022/09/24 09:14:28;;;;;;;8.30;2.20;;;14.90;99.90;;;;;;5079624;28;20051;-72
2022/09/24 09:16:59;;;;;;;9.48;2.50;;;15.00;99.90;;;;;;5088724;28;20064;-72
2022/09/24 09:19:32;;;;;;;14.48;2.20;;;15.00;99.90;;;;;;5081058;28;20104;-72
2022/09/24 09:22:14;;;;;;;13.52;3.00;;;15.00;99.90;;;;;;5053494;28;20147;-73
2022/09/24 09:24:49;;;;;;;10.02;2.40;;;15.00;99.90;;;;;;5080601;28;20044;-73
2022/09/24 09:27:17;;;;;;;10.38;2.80;;;15.20;99.90;;;;;;5054192;28;20051;-72
2022/09/24 09:29:50;;;;;;;11.93;2.78;;;15.20;99.90;;;;;;5068272;28;20460;-72
2022/09/24 09:32:24;;;;;;;19.60;3.30;;;15.40;99.90;;;;;;5069257;28;20047;-72
2022/09/24 09:35:14;;;;;;;10.02;1.95;;;15.50;99.90;;;;;;5080969;28;20078;-72
2022/09/24 09:38:02;;;;;;;16.10;3.20;;;15.50;99.90;;;;;;5070782;28;20444;-72
2022/09/24 09:40:32;;;;;;;12.43;2.63;;;15.50;99.90;;;;;;5080276;28;20405;-73
2022/09/24 09:43:03;;;;;;;14.38;2.80;;;15.50;99.90;;;;;;5056474;28;20047;-72
2022/09/24 09:45:40;;;;;;;15.93;2.67;;;15.50;99.90;;;;;;5082301;28;20174;-72
2022/09/24 09:48:11;;;;;;;10.85;2.58;;;15.50;99.90;;;;;;5070565;28;20082;-72
2022/09/24 09:50:43;;;;;;;17.10;3.00;;;15.50;99.90;;;;;;5079752;28;20058;-72
2022/09/24 09:53:20;;;;;;;12.25;2.90;;;15.40;99.90;;;;;;5066137;28;20074;-72
2022/09/24 09:56:01;;;;;;;11.13;2.17;;;15.50;99.90;;;;;;5098054;28;20043;-73
2022/09/24 09:58:32;;;;;;;9.38;2.60;;;15.40;99.90;;;;;;5052187;28;20084;-72
2022/09/24 10:01:08;;;;;;;9.77;3.10;;;15.30;99.90;;;;;;5068306;28;20044;-72
2022/09/24 10:03:50;;;;;;;8.95;2.28;;;15.20;99.90;;;;;;5090429;28;20090;-72
2022/09/24 10:06:26;;;;;;;11.68;2.55;;;15.10;99.90;;;;;;5079959;28;20066;-72
2022/09/24 10:08:52;;;;;;;9.50;2.28;;;15.10;99.90;;;;;;5070365;28;20039;-72
2022/09/24 10:11:18;;;;;;;9.07;2.25;;;15.00;99.90;;;;;;5079891;28;20608;-72
2022/09/24 10:13:45;;;;;;;12.00;2.20;;;15.00;99.90;;;;;;5077441;28;20040;-73
2022/09/24 10:16:14;;;;;;;12.77;2.22;;;14.90;99.90;;;;;;5063342;28;20075;-73
2022/09/24 10:18:49;;;;;;;10.77;3.10;;;14.80;99.90;;;;;;5069528;28;20118;-72
2022/09/24 10:21:33;;;;;;;9.05;2.42;;;14.90;99.90;;;;;;5089881;28;20051;-73
2022/09/24 10:24:01;;;;;;;9.88;2.38;;;14.80;99.90;;;;;;5067539;28;20420;-73
2022/09/24 10:26:42;;;;;;;7.85;2.00;;;14.70;99.90;;;;;;5079367;28;20052;-73
2022/09/24 10:32:24;;;;;;;9.63;2.63;;;14.60;99.90;;;;;;5067522;28;20064;-78
2022/09/24 10:35:00;;;;;;;12.20;2.28;;;14.60;99.90;;;;;;5079481;28;20174;-72
2022/09/24 10:37:27;;;;;;;7.18;2.63;;;14.70;99.90;;;;;;5061731;28;20096;-73
2022/09/24 10:40:00;;;;;;;8.25;2.15;;;14.70;99.90;;;;;;5075979;28;20052;-70
2022/09/24 10:42:28;;;;;;;11.90;2.25;;;14.60;99.90;;;;;;5052733;28;20052;-71
2022/09/24 10:44:57;;;;;;;12.75;3.55;;;14.70;99.90;;;;;;5063015;28;20040;-76
2022/09/24 10:47:43;;;;;;;9.82;2.53;;;14.70;99.90;;;;;;5069336;28;20055;-72
2022/09/24 10:50:24;;;;;;;6.88;2.50;;;14.60;99.90;;;;;;5079975;28;20048;-74
2022/09/24 10:52:55;;;;;;;12.20;2.58;;;14.70;99.90;;;;;;5087745;28;20124;-75
2022/09/24 10:55:40;;;;;;;11.40;2.55;;;14.60;99.90;;;;;;5079343;28;20052;-74
2022/09/24 10:58:37;;;;;;;12.93;2.50;;;14.60;99.90;;;;;;5068843;28;20051;-74
2022/09/24 11:01:26;;;;;;;14.15;2.85;;;14.60;99.90;;;;;;5080320;28;20043;-74
2022/09/24 11:03:52;;;;;;;11.43;2.25;;;14.60;99.90;;;;;;5053987;28;20058;-74
2022/09/24 11:06:47;;;;;;;9.70;2.05;;;14.50;99.90;;;;;;5078085;28;20044;-75
2022/09/24 11:09:25;;;;;;;11.27;2.15;;;14.60;99.90;;;;;;5072705;28;20056;-75
2022/09/24 11:12:36;;;;;;;8.65;1.95;;;14.50;99.90;;;;;;5080605;28;20075;-76
2022/09/24 11:15:23;;;;;;;14.93;2.35;;;14.60;99.90;;;;;;5051117;28;20106;-75
2022/09/24 11:18:15;;;;;;;13.13;2.50;;;14.70;99.90;;;;;;5069542;28;20122;-74
2022/09/24 11:21:00;;;;;;;13.38;1.95;;;14.70;99.90;;;;;;5080759;28;20048;-73
2022/09/24 11:24:14;;;;;;;13.13;2.30;;;14.70;99.90;;;;;;5054258;28;20050;-73
2022/09/24 11:27:26;;;;;;;8.02;2.00;;;14.70;99.90;;;;;;5065322;28;20063;-72
2022/09/24 11:30:16;;;;;;;10.05;1.95;;;14.80;99.90;;;;;;5023613;28;20094;-74
2022/09/24 11:33:18;;;;;;;18.70;2.50;;;14.70;99.90;;;;;;5061417;28;20091;-74
2022/09/24 11:35:56;;;;;;;9.20;1.92;;;14.80;99.90;;;;;;5084651;28;20090;-74
2022/09/24 11:38:49;;;;;;;6.40;1.80;;;14.80;99.90;;;;;;5062316;28;20051;-74
2022/09/24 11:41:36;;;;;;;8.98;1.45;;;14.90;99.90;;;;;;5071286;28;20047;-74
2022/09/24 11:44:21;;;;;;;8.05;1.73;;;14.90;99.90;;;;;;5058007;28;20056;-74
2022/09/24 11:46:55;;;;;;;10.73;1.83;;;14.80;99.90;;;;;;5103261;28;20072;-74
2022/09/24 11:49:36;;;;;;;7.65;1.88;;;14.90;99.90;;;;;;5076174;28;20146;-74
2022/09/24 11:52:12;;;;;;;9.20;1.95;;;14.90;99.90;;;;;;5078702;28;20044;-74
2022/09/24 11:55:05;;;;;;;5.07;1.67;;;14.90;99.90;;;;;;5068220;28;20124;-74
2022/09/24 11:57:38;;;;;;;7.22;1.98;;;14.80;99.90;;;;;;5104442;28;20082;-74
2022/09/24 12:00:11;;;;;;;10.10;2.05;;;14.90;99.90;;;;;;5092045;28;20123;-74
2022/09/24 12:02:50;;;;;;;10.50;1.70;;;14.90;99.90;;;;;;5085361;28;20048;-74
2022/09/24 12:05:34;;;;;;;4.60;1.48;;;14.80;99.90;;;;;;5073890;28;20052;-74
2022/09/24 12:08:26;;;;;;;13.80;2.35;;;14.80;99.90;;;;;;5092203;28;20036;-74
2022/09/24 12:11:02;;;;;;;8.23;2.40;;;14.80;99.90;;;;;;5084422;28;20056;-74
2022/09/24 12:13:37;;;;;;;8.60;1.40;;;14.70;99.90;;;;;;5075319;28;20134;-74
2022/09/24 12:16:15;;;;;;;8.55;1.88;;;14.70;99.90;;;;;;5074342;28;20058;-70
2022/09/24 12:19:01;;;;;;;8.10;2.10;;;14.70;99.90;;;;;;5077474;28;20106;-70
2022/09/24 12:21:39;;;;;;;8.23;1.95;;;14.70;99.90;;;;;;5081606;28;20299;-70
2022/09/24 12:24:29;;;;;;;5.95;1.80;;;14.80;99.90;;;;;;5087874;28;20164;-69
2022/09/24 12:26:58;;;;;;;6.43;1.58;;;14.70;99.90;;;;;;5071676;28;20052;-69
2022/09/24 12:33:08;;;;;;;6.22;1.30;;;14.60;99.90;;;;;;5068267;28;20048;-70
2022/09/24 12:35:42;;;;;;;7.68;1.58;;;14.70;99.90;;;;;;5055178;28;20099;-71
2022/09/24 12:38:25;;;;;;;8.82;2.05;;;14.60;99.90;;;;;;5056838;28;20441;-70
2022/09/24 12:41:05;;;;;;;9.05;1.95;;;14.60;99.90;;;;;;5082903;28;20044;-75
2022/09/24 12:43:50;;;;;;;9.68;1.70;;;14.50;99.90;;;;;;5070865;28;20044;-74
2022/09/24 12:46:24;;;;;;;9.15;1.90;;;14.50;99.90;;;;;;5081223;28;20063;-73
2022/09/24 12:48:53;;;;;;;6.63;2.28;;;14.50;99.90;;;;;;5071580;28;20102;-74
2022/09/24 12:51:22;;;;;;;11.90;1.80;;;14.60;99.90;;;;;;5080741;28;20074;-72
2022/09/24 12:54:26;;;;;;;7.07;1.70;;;14.50;99.90;;;;;;5070324;28;20063;-73
2022/09/24 12:57:06;;;;;;;6.57;2.38;;;14.50;99.90;;;;;;5080410;28;20040;-72
2022/09/24 12:59:32;;;;;;;10.05;2.40;;;14.40;99.90;;;;;;5056914;28;20137;-72
2022/09/24 13:02:18;;;;;;;7.25;1.70;;;14.40;99.90;;;;;;5088097;28;20086;-73
2022/09/24 13:05:22;;;;;;;7.57;1.95;;;14.30;99.90;;;;;;5078135;28;20228;-73
2022/09/24 13:08:22;;;;;;;5.43;1.58;;;14.30;99.90;;;;;;5078296;28;20048;-75
2022/09/24 13:10:57;;;;;;;5.90;1.48;;;14.30;99.90;;;;;;5054172;28;20052;-73